sim
Sign-in with your pilot id or email,
or register
Callsign
Passwort

Schedule Details

Flight Number: DLH2293
Departure: Brussels Airport (EBBR) at 19:15
Arrival: Munich Airport (EDDM) at 20:30
Route: Lufthansa Passenger Schedule. Enter filed route here before submitting Pirep.

Weather Information
Getting current METAR information for EBBR 201950Z 05004KT CAVOK 15/07 Q1017 NOSIG
Getting current METAR information for EDDM 201950Z 29001KT CAVOK 11/10 Q1016 NOSIG

Schedule Frequency

Route Map